sensor_id;sensor_type;location;lat;lon;timestamp;pressure;altitude;pressure_sealevel;temperature;humidity
71666;BME280;59503;53.486;10.196;2022-08-19T00:01:53;101239.75;;;18.67;95.57
71666;BME280;59503;53.486;10.196;2022-08-19T00:04:24;101219.38;;;18.54;96.04
71666;BME280;59503;53.486;10.196;2022-08-19T00:06:50;101231.13;;;18.62;95.82
71666;BME280;59503;53.486;10.196;2022-08-19T00:09:19;101230.00;;;18.55;95.53
71666;BME280;59503;53.486;10.196;2022-08-19T00:11:45;101238.22;;;18.63;95.16
71666;BME280;59503;53.486;10.196;2022-08-19T00:14:13;101236.59;;;18.69;94.77
71666;BME280;59503;53.486;10.196;2022-08-19T00:16:42;101245.28;;;18.64;94.70
71666;BME280;59503;53.486;10.196;2022-08-19T00:19:08;101252.03;;;18.55;95.22
71666;BME280;59503;53.486;10.196;2022-08-19T00:21:34;101248.50;;;18.51;95.41
71666;BME280;59503;53.486;10.196;2022-08-19T00:24:09;101250.09;;;18.52;94.84
71666;BME280;59503;53.486;10.196;2022-08-19T00:26:35;101240.63;;;18.53;94.75
71666;BME280;59503;53.486;10.196;2022-08-19T00:29:02;101241.41;;;18.54;94.79
71666;BME280;59503;53.486;10.196;2022-08-19T00:31:28;101231.94;;;18.58;94.49
71666;BME280;59503;53.486;10.196;2022-08-19T00:33:54;101221.72;;;18.55;94.07
71666;BME280;59503;53.486;10.196;2022-08-19T00:36:19;101218.59;;;18.53;94.38
71666;BME280;59503;53.486;10.196;2022-08-19T00:38:45;101213.09;;;18.53;94.54
71666;BME280;59503;53.486;10.196;2022-08-19T00:41:17;101217.00;;;18.60;94.49
71666;BME280;59503;53.486;10.196;2022-08-19T00:46:27;101193.91;;;18.43;95.24
71666;BME280;59503;53.486;10.196;2022-08-19T00:48:54;101208.00;;;18.52;95.27
71666;BME280;59503;53.486;10.196;2022-08-19T00:51:21;101206.81;;;18.53;95.05
71666;BME280;59503;53.486;10.196;2022-08-19T00:53:48;101199.75;;;18.48;95.35
71666;BME280;59503;53.486;10.196;2022-08-19T00:56:14;101199.69;;;18.59;94.86
71666;BME280;59503;53.486;10.196;2022-08-19T00:58:40;101208.75;;;18.56;94.79
71666;BME280;59503;53.486;10.196;2022-08-19T01:01:06;101215.03;;;18.56;95.40
71666;BME280;59503;53.486;10.196;2022-08-19T01:03:33;101218.59;;;18.53;95.57
71666;BME280;59503;53.486;10.196;2022-08-19T01:05:58;101212.75;;;18.48;96.33
71666;BME280;59503;53.486;10.196;2022-08-19T01:08:25;101213.94;;;18.47;96.13
71666;BME280;59503;53.486;10.196;2022-08-19T01:10:56;101219.41;;;18.50;96.14
71666;BME280;59503;53.486;10.196;2022-08-19T01:13:25;101220.22;;;18.47;96.82
71666;BME280;59503;53.486;10.196;2022-08-19T01:15:55;101215.88;;;18.46;97.41
71666;BME280;59503;53.486;10.196;2022-08-19T01:18:21;101214.34;;;18.45;97.54
71666;BME280;59503;53.486;10.196;2022-08-19T01:20:47;101217.84;;;18.49;97.47
71666;BME280;59503;53.486;10.196;2022-08-19T01:23:14;101222.50;;;18.60;97.13
71666;BME280;59503;53.486;10.196;2022-08-19T01:25:50;101213.00;;;18.68;96.86
71666;BME280;59503;53.486;10.196;2022-08-19T01:28:21;101220.97;;;18.51;97.71
71666;BME280;59503;53.486;10.196;2022-08-19T01:30:48;101194.28;;;18.38;97.97
71666;BME280;59503;53.486;10.196;2022-08-19T01:33:14;101199.34;;;18.50;98.13
71666;BME280;59503;53.486;10.196;2022-08-19T01:35:40;101199.69;;;18.59;97.47
71666;BME280;59503;53.486;10.196;2022-08-19T01:38:08;101187.84;;;18.62;97.47
71666;BME280;59503;53.486;10.196;2022-08-19T01:40:38;101193.78;;;18.57;97.80
71666;BME280;59503;53.486;10.196;2022-08-19T01:43:05;101180.06;;;18.50;98.23
71666;BME280;59503;53.486;10.196;2022-08-19T01:45:33;101178.47;;;18.56;98.07
71666;BME280;59503;53.486;10.196;2022-08-19T01:47:59;101182.81;;;18.53;98.35
71666;BME280;59503;53.486;10.196;2022-08-19T01:50:25;101176.59;;;18.46;98.72
71666;BME280;59503;53.486;10.196;2022-08-19T01:52:51;101185.16;;;18.51;98.73
71666;BME280;59503;53.486;10.196;2022-08-19T01:55:20;101162.03;;;18.45;99.02
71666;BME280;59503;53.486;10.196;2022-08-19T01:57:49;101173.03;;;18.45;99.39
71666;BME280;59503;53.486;10.196;2022-08-19T02:00:17;101167.97;;;18.40;99.71
71666;BME280;59503;53.486;10.196;2022-08-19T02:02:43;101160.50;;;18.41;99.48
71666;BME280;59503;53.486;10.196;2022-08-19T02:05:09;101152.66;;;18.39;99.86
71666;BME280;59503;53.486;10.196;2022-08-19T02:07:35;101166.41;;;18.39;99.58
71666;BME280;59503;53.486;10.196;2022-08-19T02:10:12;101162.84;;;18.35;99.78
71666;BME280;59503;53.486;10.196;2022-08-19T02:12:38;101165.59;;;18.39;99.53
71666;BME280;59503;53.486;10.196;2022-08-19T02:15:04;101164.00;;;18.41;99.04
71666;BME280;59503;53.486;10.196;2022-08-19T02:17:31;101160.53;;;18.30;99.53
71666;BME280;59503;53.486;10.196;2022-08-19T02:19:57;101170.75;;;18.30;99.70
71666;BME280;59503;53.486;10.196;2022-08-19T02:22:24;101172.34;;;18.31;100.00
71666;BME280;59503;53.486;10.196;2022-08-19T02:24:52;101162.16;;;18.24;100.00
71666;BME280;59503;53.486;10.196;2022-08-19T02:27:17;101163.31;;;18.23;100.00
71666;BME280;59503;53.486;10.196;2022-08-19T02:29:46;101162.91;;;18.28;100.00
71666;BME280;59503;53.486;10.196;2022-08-19T02:32:11;101162.91;;;18.28;100.00
71666;BME280;59503;53.486;10.196;2022-08-19T02:34:37;101162.16;;;18.24;100.00
71666;BME280;59503;53.486;10.196;2022-08-19T02:37:02;101153.50;;;18.22;100.00
71666;BME280;59503;53.486;10.196;2022-08-19T02:39:28;101164.41;;;18.36;99.62
71666;BME280;59503;53.486;10.196;2022-08-19T02:41:53;101162.06;;;18.35;99.65
71666;BME280;59503;53.486;10.196;2022-08-19T02:44:19;101166.00;;;18.34;99.69
71666;BME280;59503;53.486;10.196;2022-08-19T02:46:48;101170.69;;;18.37;99.47
71666;BME280;59503;53.486;10.196;2022-08-19T02:49:15;101169.16;;;18.32;99.73
71666;BME280;59503;53.486;10.196;2022-08-19T02:51:44;101155.03;;;18.30;99.39
71666;BME280;59503;53.486;10.196;2022-08-19T02:54:11;101164.41;;;18.36;99.94
71666;BME280;59503;53.486;10.196;2022-08-19T02:56:39;101164.41;;;18.36;99.74
71666;BME280;59503;53.486;10.196;2022-08-19T02:59:06;101160.47;;;18.37;99.80
71666;BME280;59503;53.486;10.196;2022-08-19T03:01:35;101170.72;;;18.40;99.46
71666;BME280;59503;53.486;10.196;2022-08-19T03:04:03;101153.34;;;18.50;99.09
71666;BME280;59503;53.486;10.196;2022-08-19T03:06:29;101171.06;;;18.46;99.63
71666;BME280;59503;53.486;10.196;2022-08-19T03:08:55;101166.75;;;18.41;99.54
71666;BME280;59503;53.486;10.196;2022-08-19T03:11:27;101162.03;;;18.45;99.39
71666;BME280;59503;53.486;10.196;2022-08-19T03:13:53;101165.94;;;18.48;99.11
71666;BME280;59503;53.486;10.196;2022-08-19T03:16:22;101155.69;;;18.52;98.86
71666;BME280;59503;53.486;10.196;2022-08-19T03:18:48;101145.47;;;18.49;99.04
71666;BME280;59503;53.486;10.196;2022-08-19T03:21:16;101156.09;;;18.50;99.46
71666;BME280;59503;53.486;10.196;2022-08-19T03:23:42;101149.38;;;18.51;99.26
71666;BME280;59503;53.486;10.196;2022-08-19T03:26:08;101138.00;;;18.49;99.41
71666;BME280;59503;53.486;10.196;2022-08-19T03:28:33;101153.34;;;18.50;98.81
71666;BME280;59503;53.486;10.196;2022-08-19T03:31:05;101149.78;;;18.50;99.48
71666;BME280;59503;53.486;10.196;2022-08-19T03:38:28;101164.72;;;18.52;99.25
71666;BME280;59503;53.486;10.196;2022-08-19T03:40:53;101164.38;;;18.43;99.74
71666;BME280;59503;53.486;10.196;2022-08-19T03:43:19;101182.81;;;18.53;99.18
71666;BME280;59503;53.486;10.196;2022-08-19T03:45:44;101185.56;;;18.53;99.30
71666;BME280;59503;53.486;10.196;2022-08-19T03:48:09;101189.91;;;18.51;99.74
71666;BME280;59503;53.486;10.196;2022-08-19T03:50:39;101188.75;;;18.48;99.68
71666;BME280;59503;53.486;10.196;2022-08-19T03:53:05;101189.97;;;18.44;100.00
71666;BME280;59503;53.486;10.196;2022-08-19T03:55:31;101195.88;;;18.42;100.00
71666;BME280;59503;53.486;10.196;2022-08-19T03:57:56;101207.63;;;18.46;100.00
71666;BME280;59503;53.486;10.196;2022-08-19T04:00:22;101206.09;;;18.42;100.00
71666;BME280;59503;53.486;10.196;2022-08-19T04:02:47;101206.47;;;18.44;100.00
71666;BME280;59503;53.486;10.196;2022-08-19T04:05:13;101210.44;;;18.43;100.00
71666;BME280;59503;53.486;10.196;2022-08-19T04:07:39;101213.19;;;18.43;100.00
71666;BME280;59503;53.486;10.196;2022-08-19T04:10:05;101218.63;;;18.46;100.00
71666;BME280;59503;53.486;10.196;2022-08-19T04:12:30;101220.25;;;18.44;100.00
71666;BME280;59503;53.486;10.196;2022-08-19T04:14:56;101219.47;;;18.40;100.00
71666;BME280;59503;53.486;10.196;2022-08-19T04:17:21;101228.53;;;18.40;100.00
71666;BME280;59503;53.486;10.196;2022-08-19T04:19:47;101223.81;;;18.41;100.00
71666;BME280;59503;53.486;10.196;2022-08-19T04:22:12;101234.72;;;18.51;100.00
71666;BME280;59503;53.486;10.196;2022-08-19T04:24:38;101223.81;;;18.37;100.00
71666;BME280;59503;53.486;10.196;2022-08-19T04:27:04;101225.75;;;18.44;100.00
71666;BME280;59503;53.486;10.196;2022-08-19T04:29:31;101223.81;;;18.41;100.00
71666;BME280;59503;53.486;10.196;2022-08-19T04:31:57;101224.19;;;18.43;100.00
71666;BME280;59503;53.486;10.196;2022-08-19T04:34:26;101235.59;;;18.41;100.00
71666;BME280;59503;53.486;10.196;2022-08-19T04:36:54;101240.72;;;18.39;100.00
71666;BME280;59503;53.486;10.196;2022-08-19T04:39:24;101230.47;;;18.36;100.00
71666;BME280;59503;53.486;10.196;2022-08-19T04:42:11;101229.66;;;18.46;100.00
71666;BME280;59503;53.486;10.196;2022-08-19T04:44:56;101238.31;;;18.45;100.00
71666;BME280;59503;53.486;10.196;2022-08-19T04:47:21;101225.75;;;18.44;100.00
71666;BME280;59503;53.486;10.196;2022-08-19T04:49:47;101236.75;;;18.47;100.00
71666;BME280;59503;53.486;10.196;2022-08-19T04:52:14;101239.91;;;18.46;100.00
71666;BME280;59503;53.486;10.196;2022-08-19T04:54:39;101239.13;;;18.45;100.00
71666;BME280;59503;53.486;10.196;2022-08-19T04:57:09;101242.28;;;18.40;100.00
71666;BME280;59503;53.486;10.196;2022-08-19T04:59:36;101237.16;;;18.39;100.00
71666;BME280;59503;53.486;10.196;2022-08-19T05:02:03;101232.84;;;18.41;100.00
71666;BME280;59503;53.486;10.196;2022-08-19T05:04:29;101244.97;;;18.51;100.00
71666;BME280;59503;53.486;10.196;2022-08-19T05:06:56;101247.75;;;18.47;100.00
71666;BME280;59503;53.486;10.196;2022-08-19T05:09:22;101255.63;;;18.38;100.00
71666;BME280;59503;53.486;10.196;2022-08-19T05:11:47;101256.84;;;18.34;100.00
71666;BME280;59503;53.486;10.196;2022-08-19T05:14:16;101259.59;;;18.34;100.00
71666;BME280;59503;53.486;10.196;2022-08-19T05:16:41;101245.50;;;18.18;100.00
71666;BME280;59503;53.486;10.196;2022-08-19T05:19:07;101247.09;;;18.19;100.00
71666;BME280;59503;53.486;10.196;2022-08-19T05:22:05;101249.47;;;18.13;100.00
71666;BME280;59503;53.486;10.196;2022-08-19T05:24:49;101268.75;;;18.13;100.00
71666;BME280;59503;53.486;10.196;2022-08-19T05:27:14;101269.16;;;18.08;100.00
71666;BME280;59503;53.486;10.196;2022-08-19T05:29:40;101268.34;;;18.08;100.00
71666;BME280;59503;53.486;10.196;2022-08-19T05:32:06;101259.75;;;18.06;100.00
71666;BME280;59503;53.486;10.196;2022-08-19T05:34:36;101265.25;;;18.09;100.00
71666;BME280;59503;53.486;10.196;2022-08-19T05:37:04;101262.13;;;18.00;100.00
71666;BME280;59503;53.486;10.196;2022-08-19T05:39:32;101269.19;;;18.01;100.00
71666;BME280;59503;53.486;10.196;2022-08-19T05:42:01;101264.47;;;17.98;100.00
71666;BME280;59503;53.486;10.196;2022-08-19T05:44:30;101253.50;;;17.91;100.00
71666;BME280;59503;53.486;10.196;2022-08-19T05:46:57;101259.00;;;17.88;100.00
71666;BME280;59503;53.486;10.196;2022-08-19T05:49:23;101261.41;;;17.86;100.00
71666;BME280;59503;53.486;10.196;2022-08-19T05:51:51;101257.44;;;17.90;100.00
71666;BME280;59503;53.486;10.196;2022-08-19T05:54:17;101253.50;;;17.95;100.00
71666;BME280;59503;53.486;10.196;2022-08-19T05:56:43;101258.59;;;17.96;100.00
71666;BME280;59503;53.486;10.196;2022-08-19T05:59:10;101255.41;;;18.01;100.00
71666;BME280;59503;53.486;10.196;2022-08-19T06:01:38;101250.72;;;18.02;100.00
71666;BME280;59503;53.486;10.196;2022-08-19T06:04:05;101255.00;;;18.06;100.00
71666;BME280;59503;53.486;10.196;2022-08-19T06:06:32;101258.94;;;18.09;100.00
71666;BME280;59503;53.486;10.196;2022-08-19T06:09:00;101265.25;;;18.09;100.00
71666;BME280;59503;53.486;10.196;2022-08-19T06:11:44;101264.44;;;18.12;100.00
71666;BME280;59503;53.486;10.196;2022-08-19T06:14:16;101261.25;;;18.17;100.00
71666;BME280;59503;53.486;10.196;2022-08-19T06:16:43;101262.44;;;18.16;100.00
71666;BME280;59503;53.486;10.196;2022-08-19T06:19:20;101258.09;;;18.22;100.00
71666;BME280;59503;53.486;10.196;2022-08-19T06:21:48;101261.22;;;18.24;100.00
71666;BME280;59503;53.486;10.196;2022-08-19T06:24:20;101258.47;;;18.24;100.00
71666;BME280;59503;53.486;10.196;2022-08-19T06:26:47;101248.63;;;18.27;100.00
71666;BME280;59503;53.486;10.196;2022-08-19T06:29:15;101253.69;;;18.35;100.00
71666;BME280;59503;53.486;10.196;2022-08-19T06:31:43;101254.84;;;18.38;100.00
71666;BME280;59503;53.486;10.196;2022-08-19T06:34:09;101250.13;;;18.38;100.00
71666;BME280;59503;53.486;10.196;2022-08-19T06:36:38;101249.72;;;18.47;100.00
71666;BME280;59503;53.486;10.196;2022-08-19T06:39:10;101251.31;;;18.37;100.00
71666;BME280;59503;53.486;10.196;2022-08-19T06:41:37;101252.88;;;18.38;100.00
71666;BME280;59503;53.486;10.196;2022-08-19T06:44:04;101247.00;;;18.40;100.00
71666;BME280;59503;53.486;10.196;2022-08-19T06:46:30;101238.72;;;18.36;100.00
71666;BME280;59503;53.486;10.196;2022-08-19T06:48:56;101242.69;;;18.35;100.00
71666;BME280;59503;53.486;10.196;2022-08-19T06:51:22;101256.84;;;18.34;100.00
71666;BME280;59503;53.486;10.196;2022-08-19T06:53:51;101261.94;;;18.35;100.00
71666;BME280;59503;53.486;10.196;2022-08-19T06:56:24;101249.75;;;18.43;100.00
71666;BME280;59503;53.486;10.196;2022-08-19T06:58:51;101251.69;;;18.46;100.00
71666;BME280;59503;53.486;10.196;2022-08-19T07:01:18;101244.53;;;18.60;100.00
71666;BME280;59503;53.486;10.196;2022-08-19T07:03:43;101251.59;;;18.64;100.00
71666;BME280;59503;53.486;10.196;2022-08-19T07:06:13;101246.44;;;18.70;100.00
71666;BME280;59503;53.486;10.196;2022-08-19T07:08:40;101239.25;;;18.83;100.00
71666;BME280;59503;53.486;10.196;2022-08-19T07:11:11;101243.47;;;18.94;99.27
71666;BME280;59503;53.486;10.196;2022-08-19T07:13:38;101241.94;;;18.93;99.17
71666;BME280;59503;53.486;10.196;2022-08-19T07:16:07;101247.72;;;19.02;98.59
71666;BME280;59503;53.486;10.196;2022-08-19T07:18:34;101244.56;;;19.04;97.40
71666;BME280;59503;53.486;10.196;2022-08-19T07:21:09;101245.72;;;19.10;97.75
71666;BME280;59503;53.486;10.196;2022-08-19T07:23:35;101245.59;;;19.20;96.91
71666;BME280;59503;53.486;10.196;2022-08-19T07:26:09;101249.22;;;19.14;96.62
71666;BME280;59503;53.486;10.196;2022-08-19T07:28:35;101251.63;;;19.12;96.92
71666;BME280;59503;53.486;10.196;2022-08-19T07:31:08;101260.53;;;19.30;96.06
71666;BME280;59503;53.486;10.196;2022-08-19T07:33:34;101268.78;;;19.30;95.59
71666;BME280;59503;53.486;10.196;2022-08-19T07:36:06;101270.59;;;19.47;95.29
71666;BME280;59503;53.486;10.196;2022-08-19T07:38:33;101275.97;;;19.61;93.91
71666;BME280;59503;53.486;10.196;2022-08-19T07:41:00;101277.50;;;19.65;93.01
71666;BME280;59503;53.486;10.196;2022-08-19T07:43:27;101266.84;;;19.64;92.65
71666;BME280;59503;53.486;10.196;2022-08-19T07:45:53;101268.78;;;19.70;92.24
71666;BME280;59503;53.486;10.196;2022-08-19T07:48:26;101276.69;;;19.68;92.50
71666;BME280;59503;53.486;10.196;2022-08-19T07:50:56;101281.34;;;19.75;92.28
71666;BME280;59503;53.486;10.196;2022-08-19T07:53:23;101290.84;;;19.70;92.51
71666;BME280;59503;53.486;10.196;2022-08-19T07:55:49;101301.53;;;19.65;92.23
71666;BME280;59503;53.486;10.196;2022-08-19T07:58:18;101298.72;;;19.72;92.37
71666;BME280;59503;53.486;10.196;2022-08-19T08:00:46;101296.25;;;19.81;91.42
71666;BME280;59503;53.486;10.196;2022-08-19T08:03:14;101295.59;;;19.70;91.93
71666;BME280;59503;53.486;10.196;2022-08-19T08:05:40;101297.25;;;19.60;92.26
71666;BME280;59503;53.486;10.196;2022-08-19T08:08:24;101303.59;;;19.54;92.66
71666;BME280;59503;53.486;10.196;2022-08-19T08:11:09;101307.50;;;19.60;92.42
71666;BME280;59503;53.486;10.196;2022-08-19T08:13:35;101313.06;;;19.56;92.82
71666;BME280;59503;53.486;10.196;2022-08-19T08:16:01;101311.94;;;19.50;93.17
71666;BME280;59503;53.486;10.196;2022-08-19T08:18:27;101315.47;;;19.51;93.08
71666;BME280;59503;53.486;10.196;2022-08-19T08:20:54;101325.00;;;19.43;93.88
71666;BME280;59503;53.486;10.196;2022-08-19T08:23:19;101331.94;;;19.58;93.06
71666;BME280;59503;53.486;10.196;2022-08-19T08:25:50;101321.41;;;19.46;93.73
71666;BME280;59503;53.486;10.196;2022-08-19T08:28:17;101320.16;;;19.54;93.17
71666;BME280;59503;53.486;10.196;2022-08-19T08:30:43;101325.63;;;19.61;93.29
71666;BME280;59503;53.486;10.196;2022-08-19T08:33:11;101331.09;;;19.64;93.41
71666;BME280;59503;53.486;10.196;2022-08-19T08:35:36;101331.88;;;19.65;93.49
71666;BME280;59503;53.486;10.196;2022-08-19T08:38:03;101332.19;;;19.74;92.83
71666;BME280;59503;53.486;10.196;2022-08-19T08:43:24;101328.66;;;19.73;92.29
71666;BME280;59503;53.486;10.196;2022-08-19T08:46:06;101332.19;;;19.74;93.26
71666;BME280;59503;53.486;10.196;2022-08-19T08:51:15;101336.47;;;19.78;91.32
71666;BME280;59503;53.486;10.196;2022-08-19T08:53:43;101329.19;;;19.58;92.34
71666;BME280;59503;53.486;10.196;2022-08-19T08:56:11;101334.28;;;19.59;92.12
71666;BME280;59503;53.486;10.196;2022-08-19T08:58:57;101334.28;;;19.59;92.50
71666;BME280;59503;53.486;10.196;2022-08-19T09:01:24;101337.41;;;19.65;91.57
71666;BME280;59503;53.486;10.196;2022-08-19T09:03:49;101342.63;;;19.52;92.65
71666;BME280;59503;53.486;10.196;2022-08-19T09:06:51;101339.84;;;19.56;92.61
71666;BME280;59503;53.486;10.196;2022-08-19T09:12:08;101349.25;;;19.62;92.19
71666;BME280;59503;53.486;10.196;2022-08-19T09:17:11;101345.59;;;19.75;91.48
71666;BME280;59503;53.486;10.196;2022-08-19T09:19:56;101351.41;;;19.81;90.82
71666;BME280;59503;53.486;10.196;2022-08-19T09:22:23;101343.59;;;19.76;91.51
71666;BME280;59503;53.486;10.196;2022-08-19T09:24:50;101334.19;;;19.70;91.31
71666;BME280;59503;53.486;10.196;2022-08-19T09:27:18;101343.72;;;19.65;91.15
71666;BME280;59503;53.486;10.196;2022-08-19T09:29:43;101333.06;;;19.64;91.63
71666;BME280;59503;53.486;10.196;2022-08-19T09:32:09;101332.72;;;19.62;91.89
71666;BME280;59503;53.486;10.196;2022-08-19T09:34:34;101333.06;;;19.64;91.77
71666;BME280;59503;53.486;10.196;2022-08-19T09:37:00;101330.66;;;19.69;91.94
71666;BME280;59503;53.486;10.196;2022-08-19T09:39:26;101322.44;;;19.62;91.52
71666;BME280;59503;53.486;10.196;2022-08-19T09:41:51;101324.72;;;19.71;91.22
71666;BME280;59503;53.486;10.196;2022-08-19T09:44:18;101328.22;;;19.78;91.33
71666;BME280;59503;53.486;10.196;2022-08-19T09:46:45;101334.66;;;19.65;91.67
71666;BME280;59503;53.486;10.196;2022-08-19T09:49:16;101325.63;;;19.61;92.40
71666;BME280;59503;53.486;10.196;2022-08-19T09:51:42;101333.78;;;19.71;92.65
71666;BME280;59503;53.486;10.196;2022-08-19T09:54:08;101333.75;;;19.75;91.78
71666;BME280;59503;53.486;10.196;2022-08-19T09:56:33;101337.31;;;19.75;91.77
71666;BME280;59503;53.486;10.196;2022-08-19T09:59:00;101338.06;;;19.76;91.93
71666;BME280;59503;53.486;10.196;2022-08-19T10:01:28;101330.09;;;19.85;91.77
71666;BME280;59503;53.486;10.196;2022-08-19T10:03:56;101326.91;;;19.90;91.35
71666;BME280;59503;53.486;10.196;2022-08-19T10:06:23;101324.75;;;20.05;90.70
71666;BME280;59503;53.486;10.196;2022-08-19T10:08:50;101335.84;;;20.01;90.51
71666;BME280;59503;53.486;10.196;2022-08-19T10:11:17;101330.03;;;19.92;91.13
71666;BME280;59503;53.486;10.196;2022-08-19T10:13:43;101340.19;;;20.02;90.92
71666;BME280;59503;53.486;10.196;2022-08-19T10:16:13;101346.56;;;19.96;91.22
71666;BME280;59503;53.486;10.196;2022-08-19T10:18:39;101337.06;;;19.97;91.22
71666;BME280;59503;53.486;10.196;2022-08-19T10:21:13;101347.25;;;20.03;91.14
71666;BME280;59503;53.486;10.196;2022-08-19T10:23:41;101331.84;;;20.06;90.66
71666;BME280;59503;53.486;10.196;2022-08-19T10:26:12;101352.06;;;19.96;91.33
71666;BME280;59503;53.486;10.196;2022-08-19T10:28:38;101346.22;;;19.90;91.64
71666;BME280;59503;53.486;10.196;2022-08-19T10:31:15;101347.53;;;19.78;92.09
71666;BME280;59503;53.486;10.196;2022-08-19T10:33:43;101346.22;;;19.90;91.87
71666;BME280;59503;53.486;10.196;2022-08-19T10:36:11;101343.44;;;19.90;91.16
71666;BME280;59503;53.486;10.196;2022-08-19T10:38:37;101347.41;;;19.89;91.49
71666;BME280;59503;53.486;10.196;2022-08-19T10:41:11;101346.28;;;19.83;90.97
71666;BME280;59503;53.486;10.196;2022-08-19T10:43:37;101352.41;;;20.01;90.74
71666;BME280;59503;53.486;10.196;2022-08-19T10:46:05;101349.31;;;19.96;90.77
71666;BME280;59503;53.486;10.196;2022-08-19T10:48:31;101348.22;;;19.86;91.21
71666;BME280;59503;53.486;10.196;2022-08-19T10:50:57;101341.06;;;19.92;91.43
71666;BME280;59503;53.486;10.196;2022-08-19T10:53:41;101338.31;;;19.92;91.09
71666;BME280;59503;53.486;10.196;2022-08-19T10:56:07;101338.50;;;20.08;90.65
71666;BME280;59503;53.486;10.196;2022-08-19T10:58:51;101334.97;;;20.08;90.63
71666;BME280;59503;53.486;10.196;2022-08-19T11:01:16;101328.31;;;20.05;90.36
71666;BME280;59503;53.486;10.196;2022-08-19T11:03:42;101336.59;;;20.05;90.15
71666;BME280;59503;53.486;10.196;2022-08-19T11:06:08;101332.59;;;20.10;90.91
71666;BME280;59503;53.486;10.196;2022-08-19T11:08:34;101331.03;;;20.09;90.67
71666;BME280;59503;53.486;10.196;2022-08-19T11:11:02;101353.06;;;20.16;90.28
71666;BME280;59503;53.486;10.196;2022-08-19T11:13:30;101353.72;;;20.27;90.54
71666;BME280;59503;53.486;10.196;2022-08-19T11:16:02;101343.91;;;20.22;90.04
71666;BME280;59503;53.486;10.196;2022-08-19T11:18:28;101338.41;;;20.22;90.32
71666;BME280;59503;53.486;10.196;2022-08-19T11:20:53;101340.69;;;20.27;89.92
71666;BME280;59503;53.486;10.196;2022-08-19T11:23:19;101335.56;;;20.29;89.62
71666;BME280;59503;53.486;10.196;2022-08-19T11:25:45;101344.63;;;20.26;89.69
71666;BME280;59503;53.486;10.196;2022-08-19T11:28:11;101336.28;;;20.33;89.93
71666;BME280;59503;53.486;10.196;2022-08-19T11:30:37;101327.69;;;20.28;89.35
71666;BME280;59503;53.486;10.196;2022-08-19T11:33:03;101333.47;;;20.37;89.23
71666;BME280;59503;53.486;10.196;2022-08-19T11:35:28;101318.47;;;20.38;89.39
71666;BME280;59503;53.486;10.196;2022-08-19T11:37:54;101325.44;;;20.49;89.20
71666;BME280;59503;53.486;10.196;2022-08-19T11:40:21;101319.75;;;20.60;88.62
71666;BME280;59503;53.486;10.196;2022-08-19T11:42:46;101322.03;;;20.65;88.97
71666;BME280;59503;53.486;10.196;2022-08-19T11:45:22;101318.97;;;20.86;87.31
71666;BME280;59503;53.486;10.196;2022-08-19T11:47:48;101313.03;;;20.87;86.97
71666;BME280;59503;53.486;10.196;2022-08-19T11:50:15;101328.72;;;20.94;86.79
71666;BME280;59503;53.486;10.196;2022-08-19T11:52:40;101326.38;;;20.92;86.97
71666;BME280;59503;53.486;10.196;2022-08-19T11:55:06;101325.50;;;20.72;87.32
71666;BME280;59503;53.486;10.196;2022-08-19T11:57:32;101340.88;;;20.73;87.01
71666;BME280;59503;53.486;10.196;2022-08-19T11:59:57;101333.22;;;20.58;87.64
71666;BME280;59503;53.486;10.196;2022-08-19T12:02:23;101330.03;;;20.59;88.00
71666;BME280;59503;53.486;10.196;2022-08-19T12:04:49;101333.75;;;20.76;87.07
71666;BME280;59503;53.486;10.196;2022-08-19T12:07:14;101334.97;;;21.02;86.03
71666;BME280;59503;53.486;10.196;2022-08-19T12:09:40;101329.03;;;21.03;86.39
71666;BME280;59503;53.486;10.196;2022-08-19T12:12:06;101326.53;;;21.09;85.90
71666;BME280;59503;53.486;10.196;2022-08-19T12:14:31;101331.50;;;21.21;84.87
71666;BME280;59503;53.486;10.196;2022-08-19T12:16:57;101332.53;;;21.30;85.39
71666;BME280;59503;53.486;10.196;2022-08-19T12:19:23;101333.84;;;21.22;84.79
71666;BME280;59503;53.486;10.196;2022-08-19T12:21:50;101322.97;;;21.35;83.63
71666;BME280;59503;53.486;10.196;2022-08-19T12:24:16;101325.69;;;21.38;83.92
71666;BME280;59503;53.486;10.196;2022-08-19T12:26:48;101313.59;;;21.52;83.53
71666;BME280;59503;53.486;10.196;2022-08-19T12:29:14;101319.13;;;21.52;83.17
71666;BME280;59503;53.486;10.196;2022-08-19T12:31:40;101324.00;;;21.44;82.85
71666;BME280;59503;53.486;10.196;2022-08-19T12:34:05;101322.25;;;21.31;83.56
71666;BME280;59503;53.486;10.196;2022-08-19T12:36:31;101330.31;;;21.45;83.81
71666;BME280;59503;53.486;10.196;2022-08-19T12:38:58;101324.53;;;21.59;82.54
71666;BME280;59503;53.486;10.196;2022-08-19T12:41:24;101316.22;;;21.36;83.16
71666;BME280;59503;53.486;10.196;2022-08-19T12:43:50;101324.19;;;21.57;83.07
71666;BME280;59503;53.486;10.196;2022-08-19T12:46:17;101321.19;;;21.67;82.60
71666;BME280;59503;53.486;10.196;2022-08-19T12:48:42;101327.41;;;21.75;83.00
71666;BME280;59503;53.486;10.196;2022-08-19T12:51:12;101317.66;;;22.09;80.48
71666;BME280;59503;53.486;10.196;2022-08-19T12:53:38;101309.28;;;22.13;80.11
71666;BME280;59503;53.486;10.196;2022-08-19T12:56:05;101320.41;;;22.09;80.57
71666;BME280;59503;53.486;10.196;2022-08-19T12:58:30;101310.47;;;22.32;79.13
71666;BME280;59503;53.486;10.196;2022-08-19T13:01:00;101312.78;;;22.72;78.37